Time;durP1;ratioP1;P1;durP2;ratioP2;P2;SDS_P1;SDS_P2;PMS_P1;PMS_P2;Temp;Humidity;BMP_temperature;BMP_pressure;BME280_temperature;BME280_humidity;BME280_pressure;Samples;Min_cycle;Max_cycle;Signal;HPM_P1;HPM_P2
2023/09/17 00:00:32;;;;;;;21.17;18.45;;;14.70;99.90;;;;;;5033838;28;20060;-71
2023/09/17 00:02:58;;;;;;;17.33;15.45;;;14.70;99.90;;;;;;5032649;28;20091;-70
2023/09/17 00:05:24;;;;;;;21.40;19.30;;;14.70;99.90;;;;;;5033453;28;20042;-71
2023/09/17 00:07:50;;;;;;;20.13;17.88;;;14.70;99.90;;;;;;5033533;28;20037;-70
2023/09/17 00:10:16;;;;;;;20.33;18.33;;;14.70;99.90;;;;;;5033224;28;20049;-71
2023/09/17 00:12:42;;;;;;;21.75;18.50;;;14.60;99.90;;;;;;5033838;28;20447;-71
2023/09/17 00:15:08;;;;;;;56.05;43.72;;;14.70;99.90;;;;;;5033460;28;20072;-71
2023/09/17 00:17:34;;;;;;;25.75;22.55;;;14.70;99.90;;;;;;5033270;28;20045;-71
2023/09/17 00:20:00;;;;;;;26.42;21.17;;;14.70;99.90;;;;;;5033257;28;20047;-70
2023/09/17 00:22:26;;;;;;;37.00;27.58;;;14.70;99.90;;;;;;5033234;28;20049;-70
2023/09/17 00:24:52;;;;;;;32.30;27.20;;;14.70;99.90;;;;;;5033139;28;20048;-70
2023/09/17 00:27:17;;;;;;;27.00;21.33;;;14.70;99.90;;;;;;5033162;28;20046;-69
2023/09/17 00:29:43;;;;;;;25.20;21.60;;;13.80;99.90;;;;;;5033863;28;20104;-73
2023/09/17 00:32:09;;;;;;;22.23;19.60;;;14.70;99.90;;;;;;5033541;28;20151;-72
2023/09/17 00:34:34;;;;;;;22.60;19.58;;;14.70;99.90;;;;;;5032394;28;20150;-72
2023/09/17 00:37:00;;;;;;;24.40;20.98;;;14.80;99.90;;;;;;5032325;28;20046;-72
2023/09/17 00:39:27;;;;;;;21.77;19.27;;;14.70;99.90;;;;;;5033289;28;20050;-72
2023/09/17 00:41:53;;;;;;;24.80;21.02;;;14.80;99.90;;;;;;5033056;28;20127;-72
2023/09/17 00:44:19;;;;;;;24.77;19.65;;;14.70;99.90;;;;;;5033501;28;20060;-73
2023/09/17 00:46:46;;;;;;;20.65;18.55;;;14.70;99.90;;;;;;5033143;28;20464;-72
2023/09/17 00:49:14;;;;;;;23.90;20.63;;;14.80;99.90;;;;;;5032961;28;20050;-72
2023/09/17 00:51:43;;;;;;;26.92;23.05;;;14.80;99.90;;;;;;5000229;28;20064;-72
2023/09/17 00:54:11;;;;;;;26.77;21.63;;;14.70;99.90;;;;;;5032157;28;20046;-73
2023/09/17 00:56:37;;;;;;;23.38;21.00;;;14.70;99.90;;;;;;5032867;28;20053;-72
2023/09/17 00:59:05;;;;;;;25.73;22.50;;;14.70;99.90;;;;;;5032051;28;20491;-72
2023/09/17 01:01:32;;;;;;;25.25;22.55;;;14.60;99.90;;;;;;5033177;28;20117;-72
2023/09/17 01:03:59;;;;;;;26.75;21.67;;;14.60;99.90;;;;;;5032852;28;20048;-73
2023/09/17 01:06:25;;;;;;;25.80;21.70;;;14.60;99.90;;;;;;5031725;28;20123;-72
2023/09/17 01:08:51;;;;;;;37.92;29.27;;;14.60;99.90;;;;;;5032615;28;20045;-72
2023/09/17 01:11:18;;;;;;;30.10;26.42;;;14.60;99.90;;;;;;5032336;28;20054;-72
2023/09/17 01:13:49;;;;;;;30.33;26.10;;;14.60;99.90;;;;;;5033067;28;20075;-72
2023/09/17 01:16:16;;;;;;;22.75;20.17;;;14.60;99.90;;;;;;5032516;28;20041;-72
2023/09/17 01:18:42;;;;;;;23.30;20.42;;;14.60;99.90;;;;;;5032798;28;20042;-72
2023/09/17 01:21:17;;;;;;;22.45;20.02;;;14.50;99.90;;;;;;5030965;28;20111;-73
2023/09/17 01:24:08;;;;;;;23.83;21.33;;;14.50;99.90;;;;;;5033092;28;20041;-72
2023/09/17 01:26:35;;;;;;;22.92;17.88;;;14.40;99.90;;;;;;5026499;28;20144;-72
2023/09/17 01:29:04;;;;;;;23.90;19.30;;;14.40;99.90;;;;;;5032333;28;20049;-73
2023/09/17 01:31:30;;;;;;;24.15;21.02;;;14.30;99.90;;;;;;5032448;28;20088;-72
2023/09/17 01:33:56;;;;;;;20.30;18.20;;;14.30;99.90;;;;;;5032342;28;20045;-73
2023/09/17 01:36:33;;;;;;;21.42;18.42;;;14.30;99.90;;;;;;5031329;28;20050;-72
2023/09/17 01:39:10;;;;;;;19.83;17.35;;;14.30;99.90;;;;;;5031532;28;20068;-71
2023/09/17 01:41:37;;;;;;;20.27;17.40;;;14.30;99.90;;;;;;5032433;28;20048;-72
2023/09/17 01:44:06;;;;;;;18.48;16.48;;;14.30;99.90;;;;;;5032373;28;20049;-72
2023/09/17 01:46:33;;;;;;;18.98;17.10;;;14.30;99.90;;;;;;5032220;28;20042;-73
2023/09/17 01:49:00;;;;;;;20.13;17.90;;;14.20;99.90;;;;;;5032450;28;20072;-73
2023/09/17 01:51:26;;;;;;;18.50;16.63;;;14.20;99.90;;;;;;5032443;28;20053;-72
2023/09/17 01:53:53;;;;;;;19.27;17.30;;;14.10;99.90;;;;;;5031406;28;20457;-72
2023/09/17 01:56:18;;;;;;;20.08;17.98;;;14.10;99.90;;;;;;5032181;28;20434;-72
2023/09/17 01:58:44;;;;;;;22.58;20.17;;;14.10;99.90;;;;;;5030895;28;20052;-72
2023/09/17 02:01:09;;;;;;;26.48;22.92;;;14.00;99.90;;;;;;5031135;28;20116;-72
2023/09/17 02:03:35;;;;;;;24.40;20.95;;;14.00;99.90;;;;;;5032723;28;20112;-73
2023/09/17 02:06:04;;;;;;;21.17;18.05;;;14.00;99.90;;;;;;5032164;28;20389;-73
2023/09/17 02:08:30;;;;;;;21.50;19.15;;;14.10;99.90;;;;;;5032316;28;20037;-72
2023/09/17 02:10:56;;;;;;;23.70;21.13;;;14.10;99.90;;;;;;5032183;28;20054;-72
2023/09/17 02:13:22;;;;;;;23.00;20.75;;;14.10;99.90;;;;;;5035151;28;20551;-72
2023/09/17 02:15:47;;;;;;;23.00;20.58;;;14.20;99.90;;;;;;5035795;28;20045;-71
2023/09/17 02:18:14;;;;;;;34.97;26.77;;;14.20;99.90;;;;;;5036201;28;20187;-72
2023/09/17 02:20:40;;;;;;;24.88;21.85;;;14.30;99.90;;;;;;5036067;28;20451;-71
2023/09/17 02:23:06;;;;;;;29.23;25.27;;;14.40;99.90;;;;;;5035802;28;20038;-72
2023/09/17 02:25:32;;;;;;;26.50;23.73;;;14.40;99.90;;;;;;5035169;28;20076;-72
2023/09/17 02:27:58;;;;;;;22.83;20.35;;;14.50;99.90;;;;;;5035573;28;20049;-72
2023/09/17 02:30:24;;;;;;;24.60;21.35;;;14.50;99.90;;;;;;5035819;28;20069;-73
2023/09/17 02:32:50;;;;;;;22.27;19.95;;;14.40;99.90;;;;;;5035518;28;20041;-73
2023/09/17 02:35:16;;;;;;;20.70;18.63;;;14.50;99.90;;;;;;5035666;28;20052;-73
2023/09/17 02:37:42;;;;;;;26.73;21.23;;;14.50;99.90;;;;;;5035415;28;20041;-72
2023/09/17 02:40:09;;;;;;;27.83;23.50;;;14.50;99.90;;;;;;5035320;28;20083;-73
2023/09/17 02:42:38;;;;;;;37.67;27.75;;;14.60;99.90;;;;;;5034926;28;20419;-71
2023/09/17 02:45:05;;;;;;;31.73;25.00;;;14.70;99.90;;;;;;5035214;28;20060;-72
2023/09/17 02:47:33;;;;;;;28.50;21.70;;;14.70;99.90;;;;;;5035152;28;20168;-74
2023/09/17 02:49:59;;;;;;;32.78;29.08;;;14.80;99.90;;;;;;5035137;28;20049;-72
2023/09/17 02:52:26;;;;;;;23.00;20.35;;;14.80;99.90;;;;;;5035155;28;20057;-72
2023/09/17 02:54:54;;;;;;;25.60;21.98;;;14.90;99.90;;;;;;5035129;28;20133;-72
2023/09/17 02:57:19;;;;;;;20.00;16.25;;;14.90;99.90;;;;;;5034782;28;20049;-74
2023/09/17 02:59:46;;;;;;;28.05;23.40;;;14.90;99.90;;;;;;5035034;28;20045;-72
2023/09/17 03:02:11;;;;;;;28.17;24.77;;;15.00;99.90;;;;;;5034943;28;20045;-73
2023/09/17 03:04:37;;;;;;;32.22;28.23;;;15.00;99.90;;;;;;5034931;28;20146;-75
2023/09/17 03:07:04;;;;;;;31.48;26.75;;;15.00;99.90;;;;;;5034772;28;20096;-72
2023/09/17 03:09:30;;;;;;;29.95;23.05;;;15.10;99.90;;;;;;5017648;28;20363;-72
2023/09/17 03:11:56;;;;;;;31.92;27.17;;;15.10;99.90;;;;;;5034333;28;20061;-72
2023/09/17 03:14:22;;;;;;;28.23;20.48;;;15.10;99.90;;;;;;5033532;28;20413;-72
2023/09/17 03:16:48;;;;;;;27.88;24.80;;;15.20;99.90;;;;;;5017180;28;20042;-72
2023/09/17 03:19:14;;;;;;;27.60;22.63;;;15.20;99.90;;;;;;5034941;28;20042;-72
2023/09/17 03:21:40;;;;;;;33.38;26.48;;;15.20;99.90;;;;;;5034446;28;20064;-73
2023/09/17 03:24:07;;;;;;;34.05;26.70;;;15.30;99.90;;;;;;5034462;28;20049;-72
2023/09/17 03:26:33;;;;;;;30.17;25.67;;;15.30;99.90;;;;;;5034512;28;20052;-72
2023/09/17 03:28:59;;;;;;;36.80;28.85;;;15.30;99.90;;;;;;5033271;28;20063;-72
2023/09/17 03:31:26;;;;;;;34.22;28.17;;;15.40;99.90;;;;;;5034695;28;20042;-72
2023/09/17 03:33:51;;;;;;;33.83;26.92;;;15.40;99.90;;;;;;5034348;28;20080;-72
2023/09/17 03:36:17;;;;;;;33.67;29.02;;;15.40;99.90;;;;;;5033676;28;20060;-71
2023/09/17 03:38:43;;;;;;;33.78;26.55;;;15.40;99.90;;;;;;5034122;28;20075;-71
2023/09/17 03:41:08;;;;;;;34.85;28.40;;;15.40;99.90;;;;;;5034144;28;20107;-70
2023/09/17 03:43:34;;;;;;;37.08;28.58;;;15.40;99.90;;;;;;5034211;28;20042;-70
2023/09/17 03:46:03;;;;;;;36.38;31.17;;;15.50;99.90;;;;;;5034142;28;20048;-71
2023/09/17 03:48:31;;;;;;;37.67;30.42;;;15.50;99.90;;;;;;5034382;28;20045;-70
2023/09/17 03:50:58;;;;;;;36.17;30.42;;;15.60;99.90;;;;;;5034747;28;20079;-70
2023/09/17 03:53:24;;;;;;;37.95;28.25;;;15.60;99.90;;;;;;5032744;28;20429;-69
2023/09/17 03:55:50;;;;;;;37.63;30.48;;;15.60;99.90;;;;;;5034041;28;20451;-70
2023/09/17 03:58:16;;;;;;;30.05;25.23;;;15.60;99.90;;;;;;5034159;28;20049;-72
2023/09/17 04:00:45;;;;;;;35.80;28.40;;;15.60;99.90;;;;;;5034210;28;20041;-71
2023/09/17 04:03:12;;;;;;;38.45;30.88;;;15.70;99.90;;;;;;5034194;28;20049;-71
2023/09/17 04:05:38;;;;;;;36.40;30.40;;;15.70;99.90;;;;;;5033574;28;20517;-70
2023/09/17 04:08:04;;;;;;;39.75;33.22;;;15.70;99.90;;;;;;5034004;28;20046;-71
2023/09/17 04:10:29;;;;;;;40.63;33.58;;;15.70;99.90;;;;;;5033212;28;20064;-70
2023/09/17 04:12:55;;;;;;;38.22;31.65;;;15.80;99.90;;;;;;5033893;28;20049;-70
2023/09/17 04:15:21;;;;;;;40.58;32.25;;;15.70;99.90;;;;;;5033719;28;20084;-71
2023/09/17 04:17:50;;;;;;;36.17;31.52;;;15.70;99.90;;;;;;5033373;28;20436;-70
2023/09/17 04:20:18;;;;;;;34.47;30.00;;;15.70;99.90;;;;;;5033493;28;20045;-71
2023/09/17 04:22:46;;;;;;;42.08;33.83;;;15.80;99.90;;;;;;5033237;28;20525;-70
2023/09/17 04:25:13;;;;;;;40.35;31.95;;;15.80;99.90;;;;;;5033312;28;20482;-71
2023/09/17 04:27:41;;;;;;;36.58;31.27;;;15.80;99.90;;;;;;5032194;28;20194;-71
2023/09/17 04:30:08;;;;;;;33.22;27.83;;;15.80;99.90;;;;;;5033635;28;20110;-71
2023/09/17 04:32:39;;;;;;;38.42;32.15;;;15.80;99.90;;;;;;5032740;28;20421;-70
2023/09/17 04:35:09;;;;;;;37.72;30.60;;;15.90;99.90;;;;;;5032420;28;20049;-70
2023/09/17 04:37:37;;;;;;;38.78;32.92;;;15.90;99.90;;;;;;5032929;28;20041;-70
2023/09/17 04:40:13;;;;;;;40.53;34.53;;;15.90;99.90;;;;;;5033523;28;20057;-70
2023/09/17 04:42:40;;;;;;;38.58;30.60;;;15.90;99.90;;;;;;5032705;28;20099;-71
2023/09/17 04:45:06;;;;;;;38.72;32.00;;;15.90;99.90;;;;;;5032683;28;20482;-70
2023/09/17 04:47:36;;;;;;;39.08;31.63;;;15.90;99.90;;;;;;5032964;28;20124;-70
2023/09/17 04:50:04;;;;;;;36.20;31.55;;;15.90;99.90;;;;;;5033225;28;20041;-71
2023/09/17 04:52:29;;;;;;;35.30;29.77;;;15.90;99.90;;;;;;5032556;28;20084;-71
2023/09/17 04:54:55;;;;;;;30.48;26.77;;;15.90;99.90;;;;;;5033405;28;20512;-71
2023/09/17 04:57:21;;;;;;;36.20;29.85;;;16.00;99.90;;;;;;5033129;28;20049;-70
2023/09/17 04:59:46;;;;;;;31.65;28.33;;;16.00;99.90;;;;;;5032658;28;20049;-72
2023/09/17 05:02:14;;;;;;;38.78;33.35;;;15.90;99.90;;;;;;5031816;28;20052;-70
2023/09/17 05:04:40;;;;;;;37.70;33.65;;;15.90;99.90;;;;;;5032781;28;20088;-71
2023/09/17 05:07:06;;;;;;;35.40;31.40;;;15.90;99.90;;;;;;5032802;28;20049;-71
2023/09/17 05:09:32;;;;;;;36.97;29.27;;;15.90;99.90;;;;;;5031882;28;20061;-71
2023/09/17 05:11:58;;;;;;;37.40;28.70;;;15.90;99.90;;;;;;5032648;28;20073;-70
2023/09/17 05:14:24;;;;;;;44.50;32.92;;;15.90;99.90;;;;;;5032585;28;20049;-71
2023/09/17 05:16:49;;;;;;;33.72;27.80;;;15.90;99.90;;;;;;5032422;28;20095;-71
2023/09/17 05:19:15;;;;;;;33.25;29.50;;;15.90;99.90;;;;;;5032589;28;20037;-70
2023/09/17 05:21:41;;;;;;;36.00;30.00;;;15.90;99.90;;;;;;5031580;28;20429;-71
2023/09/17 05:24:07;;;;;;;27.88;22.05;;;15.90;99.90;;;;;;5032369;28;20120;-70
2023/09/17 05:26:32;;;;;;;32.58;28.90;;;15.90;99.90;;;;;;5032454;28;20116;-70
2023/09/17 05:28:58;;;;;;;36.75;31.85;;;15.90;99.90;;;;;;5015654;28;20461;-71
2023/09/17 05:31:24;;;;;;;36.63;31.20;;;15.90;99.90;;;;;;5032398;28;20052;-70
2023/09/17 05:33:50;;;;;;;35.13;29.73;;;15.90;99.90;;;;;;5032504;28;20128;-71
2023/09/17 05:36:15;;;;;;;36.65;32.75;;;16.00;99.90;;;;;;5032403;28;20048;-70
2023/09/17 05:38:42;;;;;;;33.55;28.95;;;15.90;99.90;;;;;;5032631;28;20099;-70
2023/09/17 05:41:08;;;;;;;30.90;25.70;;;16.00;99.90;;;;;;5032663;28;20068;-70
2023/09/17 05:43:34;;;;;;;26.20;22.45;;;15.90;99.90;;;;;;5032742;28;20053;-70
2023/09/17 05:46:00;;;;;;;33.78;29.33;;;16.00;99.90;;;;;;5034591;28;20057;-70
2023/09/17 05:48:26;;;;;;;35.22;27.83;;;16.00;99.90;;;;;;5036103;28;20045;-71
2023/09/17 05:50:54;;;;;;;32.08;28.67;;;16.00;99.90;;;;;;5036755;28;20049;-71
2023/09/17 05:53:20;;;;;;;37.40;29.30;;;16.10;99.90;;;;;;5036377;28;20045;-71
2023/09/17 05:55:46;;;;;;;32.38;27.45;;;16.00;99.90;;;;;;5036278;28;20068;-71
2023/09/17 05:58:11;;;;;;;32.55;29.02;;;16.10;99.90;;;;;;5036295;28;20041;-71
2023/09/17 06:00:37;;;;;;;38.38;31.55;;;16.10;99.90;;;;;;5036211;28;20534;-70
2023/09/17 06:03:03;;;;;;;36.28;31.50;;;16.10;99.90;;;;;;5036741;28;20629;-71
2023/09/17 06:05:28;;;;;;;38.55;31.23;;;16.20;99.90;;;;;;5036653;28;20118;-70
2023/09/17 06:07:54;;;;;;;37.83;32.45;;;16.20;99.90;;;;;;5036346;28;20048;-70
2023/09/17 06:10:23;;;;;;;38.63;32.65;;;16.10;99.90;;;;;;5036758;28;20041;-70
2023/09/17 06:12:50;;;;;;;38.90;32.20;;;16.10;99.90;;;;;;5036458;28;20060;-70
2023/09/17 06:15:16;;;;;;;38.65;31.85;;;16.10;99.90;;;;;;5036914;28;20050;-71
2023/09/17 06:17:41;;;;;;;36.67;30.00;;;16.10;99.90;;;;;;5036008;28;20507;-71
2023/09/17 06:20:10;;;;;;;33.03;29.45;;;16.20;99.90;;;;;;5035878;28;20179;-70
2023/09/17 06:22:36;;;;;;;33.17;29.38;;;16.20;99.90;;;;;;5034931;28;20460;-71
2023/09/17 06:25:03;;;;;;;37.20;31.95;;;16.20;99.90;;;;;;5035698;28;20064;-71
2023/09/17 06:27:30;;;;;;;38.53;32.10;;;16.30;99.90;;;;;;5035798;28;20045;-72
2023/09/17 06:29:55;;;;;;;39.28;34.85;;;16.30;99.90;;;;;;5035587;28;20060;-70
2023/09/17 06:32:21;;;;;;;37.63;33.08;;;16.30;99.90;;;;;;5035447;28;20045;-70
2023/09/17 06:34:47;;;;;;;42.00;33.75;;;16.40;99.90;;;;;;5034233;28;20072;-71
2023/09/17 06:37:13;;;;;;;38.85;32.88;;;16.40;99.90;;;;;;5035531;28;20152;-71
2023/09/17 06:39:39;;;;;;;39.42;32.58;;;16.40;99.90;;;;;;5035352;28;20415;-70
2023/09/17 06:42:05;;;;;;;36.88;32.13;;;16.40;99.90;;;;;;5035168;28;20126;-70
2023/09/17 06:44:31;;;;;;;41.58;32.92;;;16.50;99.90;;;;;;5035523;28;20084;-71
2023/09/17 06:46:56;;;;;;;39.40;33.75;;;16.50;99.90;;;;;;5033775;28;20050;-71
2023/09/17 06:49:22;;;;;;;39.90;34.40;;;16.60;99.90;;;;;;5033948;28;20041;-73
2023/09/17 06:51:50;;;;;;;39.05;33.40;;;16.70;99.90;;;;;;5035167;28;20415;-73
2023/09/17 06:54:16;;;;;;;40.72;32.22;;;16.70;99.90;;;;;;5034928;28;20051;-69
2023/09/17 06:56:41;;;;;;;36.55;32.58;;;16.70;99.90;;;;;;5034584;28;20041;-72
2023/09/17 06:59:07;;;;;;;38.17;33.58;;;16.80;99.90;;;;;;5033735;28;20046;-72
2023/09/17 07:01:33;;;;;;;41.05;35.53;;;16.80;99.90;;;;;;5034961;28;20111;-72
2023/09/17 07:03:59;;;;;;;51.63;32.90;;;16.80;99.90;;;;;;5034763;28;20107;-70
2023/09/17 07:06:24;;;;;;;41.47;30.98;;;16.90;99.90;;;;;;5033789;28;20489;-69
2023/09/17 07:08:52;;;;;;;42.00;34.42;;;16.90;99.90;;;;;;5033544;28;20120;-72
2023/09/17 07:11:18;;;;;;;43.13;34.53;;;17.10;99.90;;;;;;5033967;28;20073;-73
2023/09/17 07:13:44;;;;;;;38.58;34.25;;;17.20;99.90;;;;;;5017539;28;20057;-70
2023/09/17 07:16:09;;;;;;;38.63;34.58;;;17.30;99.90;;;;;;5034694;28;20122;-72
2023/09/17 07:18:35;;;;;;;37.63;32.83;;;17.20;99.90;;;;;;5016882;28;20045;-69
2023/09/17 07:21:01;;;;;;;40.47;31.08;;;17.40;99.90;;;;;;5034504;28;20059;-71
2023/09/17 07:23:27;;;;;;;39.33;32.65;;;17.40;99.90;;;;;;5034110;28;20139;-72
2023/09/17 07:25:53;;;;;;;36.33;32.17;;;17.50;99.90;;;;;;5034617;28;20131;-72
2023/09/17 07:28:19;;;;;;;36.40;29.65;;;17.50;99.90;;;;;;5035183;28;20045;-72
2023/09/17 07:30:45;;;;;;;36.08;32.20;;;17.60;99.90;;;;;;5034473;28;20054;-72
2023/09/17 07:33:12;;;;;;;35.58;31.70;;;17.60;99.90;;;;;;5034400;28;20049;-72
2023/09/17 07:35:39;;;;;;;34.28;30.58;;;17.60;99.90;;;;;;5033434;28;20410;-72
2023/09/17 07:38:04;;;;;;;33.92;30.25;;;17.70;99.90;;;;;;5034304;28;20037;-72
2023/09/17 07:40:30;;;;;;;35.83;28.42;;;17.70;99.90;;;;;;5033889;28;20050;-72
2023/09/17 07:42:56;;;;;;;31.05;27.80;;;17.80;99.90;;;;;;5034854;28;20384;-70
2023/09/17 07:45:22;;;;;;;33.47;28.58;;;17.90;99.90;;;;;;5033487;28;20454;-69
2023/09/17 07:47:47;;;;;;;32.28;28.85;;;17.90;99.90;;;;;;5034109;28;20073;-70
2023/09/17 07:50:13;;;;;;;30.45;27.10;;;17.90;99.90;;;;;;5034161;28;20045;-69
2023/09/17 07:52:40;;;;;;;30.83;27.50;;;18.00;99.90;;;;;;5034086;28;20045;-70
2023/09/17 07:55:06;;;;;;;35.25;29.25;;;18.00;99.90;;;;;;5034158;28;20042;-72
2023/09/17 07:57:32;;;;;;;31.13;27.73;;;18.00;99.90;;;;;;5034302;28;20442;-72
2023/09/17 07:59:57;;;;;;;35.20;27.48;;;18.00;99.90;;;;;;5032981;28;20089;-72
2023/09/17 08:02:23;;;;;;;29.58;25.98;;;18.10;99.90;;;;;;5033550;28;20494;-71
2023/09/17 08:04:49;;;;;;;35.70;27.67;;;18.10;99.90;;;;;;5033014;28;20103;-71
2023/09/17 08:07:16;;;;;;;32.92;27.63;;;18.10;99.90;;;;;;5032808;28;20053;-71
2023/09/17 08:09:42;;;;;;;29.67;26.50;;;18.10;99.90;;;;;;5032294;28;20107;-70
2023/09/17 08:12:08;;;;;;;33.92;28.60;;;18.10;99.90;;;;;;5033821;28;20491;-71
2023/09/17 08:14:34;;;;;;;31.83;27.65;;;18.20;99.90;;;;;;5032787;28;20479;-71
2023/09/17 08:17:01;;;;;;;34.67;29.20;;;18.20;99.90;;;;;;5033963;28;20124;-71
2023/09/17 08:19:27;;;;;;;35.67;28.88;;;18.30;99.90;;;;;;5033566;28;20088;-71
2023/09/17 08:21:52;;;;;;;34.67;29.40;;;18.30;99.90;;;;;;5033708;28;20053;-74
2023/09/17 08:24:20;;;;;;;37.05;29.63;;;18.30;99.90;;;;;;5033842;28;20091;-71
2023/09/17 08:26:49;;;;;;;32.00;27.73;;;18.40;99.90;;;;;;5033447;28;20053;-71
2023/09/17 08:29:15;;;;;;;31.77;28.30;;;18.50;99.90;;;;;;5033858;28;20146;-71
2023/09/17 08:31:41;;;;;;;33.38;26.70;;;18.50;99.90;;;;;;5033354;28;20493;-70
2023/09/17 08:34:06;;;;;;;29.40;26.23;;;18.50;99.90;;;;;;5033890;28;20045;-71
2023/09/17 08:36:32;;;;;;;29.55;26.25;;;18.50;99.90;;;;;;5033209;28;20418;-73
2023/09/17 08:38:58;;;;;;;30.38;26.05;;;18.50;99.90;;;;;;5033695;28;20068;-71
2023/09/17 08:41:24;;;;;;;30.30;25.60;;;18.60;99.90;;;;;;5032284;28;20533;-71
2023/09/17 08:43:54;;;;;;;28.23;24.98;;;18.60;99.90;;;;;;5033016;28;20474;-70
2023/09/17 08:46:21;;;;;;;28.02;24.42;;;18.70;99.90;;;;;;5033036;28;20041;-71
2023/09/17 08:48:47;;;;;;;32.40;24.83;;;18.70;99.90;;;;;;5032691;28;20103;-70
2023/09/17 08:51:15;;;;;;;27.38;22.70;;;18.80;99.90;;;;;;5032881;28;20045;-70
2023/09/17 08:53:50;;;;;;;26.63;23.92;;;18.80;99.90;;;;;;5032821;28;20132;-71
2023/09/17 08:56:17;;;;;;;29.48;24.20;;;18.90;99.90;;;;;;5033410;28;20049;-71
2023/09/17 08:58:50;;;;;;;24.05;21.50;;;18.80;99.90;;;;;;5032858;28;20057;-70
2023/09/17 09:01:19;;;;;;;30.90;25.60;;;18.90;99.90;;;;;;5033391;28;20072;-70
2023/09/17 09:03:45;;;;;;;25.95;23.25;;;18.90;99.90;;;;;;5032694;28;20057;-70
2023/09/17 09:06:14;;;;;;;30.27;26.15;;;18.80;99.90;;;;;;5033008;28;20045;-70
2023/09/17 09:08:42;;;;;;;30.15;24.92;;;18.90;99.90;;;;;;5031377;28;20047;-70
2023/09/17 09:11:09;;;;;;;29.75;25.33;;;18.90;99.90;;;;;;5032413;28;20110;-71
2023/09/17 09:13:37;;;;;;;28.63;23.55;;;19.00;99.90;;;;;;5033105;28;20111;-72
2023/09/17 09:16:04;;;;;;;27.00;22.88;;;19.00;99.90;;;;;;5031623;28;20738;-70
2023/09/17 09:18:29;;;;;;;30.17;23.27;;;19.20;99.90;;;;;;5032374;28;20087;-70
2023/09/17 09:20:55;;;;;;;26.75;23.15;;;19.20;99.90;;;;;;5031589;28;20045;-70
2023/09/17 09:23:22;;;;;;;24.25;21.58;;;19.30;99.90;;;;;;5032486;28;20045;-69
2023/09/17 09:25:48;;;;;;;22.60;20.15;;;19.30;99.90;;;;;;5031608;28;20053;-67
2023/09/17 09:28:14;;;;;;;22.00;19.65;;;19.20;99.90;;;;;;5032696;28;20060;-69
2023/09/17 09:30:43;;;;;;;24.92;18.33;;;19.30;99.90;;;;;;5032758;28;20063;-68
2023/09/17 09:33:09;;;;;;;21.75;17.60;;;19.30;99.90;;;;;;5032839;28;20041;-67
2023/09/17 09:35:35;;;;;;;21.42;17.85;;;19.40;99.90;;;;;;5031511;28;20053;-68
2023/09/17 09:38:01;;;;;;;23.92;19.75;;;19.40;99.90;;;;;;5032296;28;20129;-68
2023/09/17 09:40:28;;;;;;;19.98;17.50;;;19.40;99.90;;;;;;5032695;28;20056;-68
2023/09/17 09:42:53;;;;;;;19.50;16.55;;;19.40;99.90;;;;;;5032411;28;20059;-68
2023/09/17 09:45:19;;;;;;;19.88;17.85;;;19.50;99.90;;;;;;5032452;28;20045;-74
2023/09/17 09:47:51;;;;;;;24.10;19.45;;;19.60;99.90;;;;;;5032186;28;20046;-75
2023/09/17 09:50:25;;;;;;;23.83;18.07;;;19.70;99.90;;;;;;5031428;28;20096;-75
2023/09/17 09:52:51;;;;;;;23.80;18.65;;;19.80;99.90;;;;;;5032415;28;20045;-75
2023/09/17 09:55:17;;;;;;;21.58;19.27;;;19.80;99.90;;;;;;5031421;28;20049;-76
2023/09/17 09:57:43;;;;;;;22.58;20.35;;;19.90;99.90;;;;;;5032253;28;20561;-75
2023/09/17 10:00:18;;;;;;;20.67;17.70;;;19.90;99.90;;;;;;5032573;28;20076;-74
2023/09/17 10:02:46;;;;;;;21.42;17.88;;;19.90;99.90;;;;;;5031074;28;20093;-74
2023/09/17 10:05:18;;;;;;;18.73;16.55;;;20.00;99.90;;;;;;5031493;28;20061;-73
2023/09/17 10:07:47;;;;;;;19.77;17.33;;;20.00;99.90;;;;;;5031559;28;20057;-77
2023/09/17 10:10:14;;;;;;;19.88;16.50;;;20.00;99.90;;;;;;5030973;28;20173;-74
2023/09/17 10:12:40;;;;;;;23.30;18.45;;;20.00;99.90;;;;;;5032149;28;20119;-75
2023/09/17 10:15:07;;;;;;;22.88;17.77;;;20.00;99.90;;;;;;5031958;28;20045;-74
2023/09/17 10:17:36;;;;;;;21.08;18.63;;;20.10;99.90;;;;;;5032640;28;20072;-76
2023/09/17 10:20:06;;;;;;;26.75;20.55;;;20.10;99.90;;;;;;5032290;28;20058;-76
2023/09/17 10:22:35;;;;;;;19.70;17.70;;;20.20;99.90;;;;;;5031941;28;20041;-76
2023/09/17 10:25:04;;;;;;;21.17;18.73;;;20.10;99.90;;;;;;5032263;28;20393;-76
2023/09/17 10:27:31;;;;;;;21.08;18.95;;;20.10;99.90;;;;;;5031671;28;20482;-73
2023/09/17 10:29:58;;;;;;;21.90;18.85;;;20.10;99.90;;;;;;5014583;28;20088;-70
2023/09/17 10:32:26;;;;;;;25.05;20.88;;;20.10;99.90;;;;;;5031811;28;20486;-70
2023/09/17 10:34:56;;;;;;;25.85;22.98;;;20.10;99.90;;;;;;5035489;28;20069;-70
2023/09/17 10:37:25;;;;;;;29.15;22.55;;;20.00;99.90;;;;;;5035809;28;20108;-69
2023/09/17 10:39:53;;;;;;;25.17;21.33;;;20.00;99.90;;;;;;5035715;28;20087;-70
2023/09/17 10:42:20;;;;;;;28.25;22.98;;;20.00;99.90;;;;;;5035459;28;20057;-69
2023/09/17 10:44:48;;;;;;;26.42;22.45;;;20.00;99.90;;;;;;5035611;28;20145;-69
2023/09/17 10:47:17;;;;;;;25.45;22.10;;;19.90;99.90;;;;;;5035099;28;20057;-70
2023/09/17 10:49:44;;;;;;;24.77;21.52;;;19.90;99.90;;;;;;5035801;28;20432;-70
2023/09/17 10:52:11;;;;;;;24.38;21.67;;;19.80;99.90;;;;;;5035065;28;20049;-69
2023/09/17 10:54:38;;;;;;;27.77;22.50;;;19.80;99.90;;;;;;5034738;28;20480;-72
2023/09/17 10:57:15;;;;;;;26.98;22.83;;;19.70;99.90;;;;;;5034308;28;20152;-69
2023/09/17 10:59:42;;;;;;;27.40;24.17;;;19.80;99.90;;;;;;5033961;28;20042;-70
2023/09/17 11:02:10;;;;;;;26.02;21.40;;;19.80;99.90;;;;;;5035142;28;20056;-71
2023/09/17 11:04:38;;;;;;;25.48;22.15;;;20.30;99.90;;;;;;5034925;28;20046;-69
2023/09/17 11:07:07;;;;;;;23.73;21.17;;;20.70;99.90;;;;;;5035418;28;20053;-69
2023/09/17 11:09:33;;;;;;;22.58;20.27;;;21.20;99.90;;;;;;5034944;28;20045;-69
2023/09/17 11:11:59;;;;;;;23.70;21.02;;;21.30;99.90;;;;;;5034405;28;20087;-71
2023/09/17 11:14:25;;;;;;;21.95;18.58;;;21.40;99.90;;;;;;5035014;28;20049;-70
2023/09/17 11:16:50;;;;;;;21.80;19.50;;;21.30;99.90;;;;;;5034609;28;20044;-70
2023/09/17 11:19:19;;;;;;;43.90;19.17;;;21.30;99.90;;;;;;5034707;28;20048;-70
2023/09/17 11:21:50;;;;;;;20.80;18.55;;;21.20;99.90;;;;;;5035097;28;20081;-70
2023/09/17 11:24:19;;;;;;;22.83;20.42;;;21.00;99.90;;;;;;5034491;28;20045;-71
2023/09/17 11:26:45;;;;;;;20.95;18.15;;;21.00;99.90;;;;;;5034416;28;20042;-70
2023/09/17 11:29:12;;;;;;;20.80;16.90;;;21.00;99.90;;;;;;5034412;28;20116;-71
2023/09/17 11:31:53;;;;;;;18.33;16.33;;;20.90;99.90;;;;;;5034429;28;20472;-71
2023/09/17 11:34:20;;;;;;;18.85;16.85;;;20.80;99.90;;;;;;5034403;28;20072;-71
2023/09/17 11:36:47;;;;;;;21.85;18.85;;;20.60;99.90;;;;;;5034207;28;20042;-71
2023/09/17 11:39:15;;;;;;;19.77;17.63;;;20.50;99.90;;;;;;5034324;28;20124;-71
2023/09/17 11:41:48;;;;;;;20.23;18.13;;;20.60;99.90;;;;;;5034151;28;20045;-72
2023/09/17 11:44:15;;;;;;;20.17;17.67;;;20.60;99.90;;;;;;5033145;28;20057;-71
2023/09/17 11:46:42;;;;;;;19.23;16.98;;;20.80;99.90;;;;;;5034426;28;20061;-71
2023/09/17 11:49:09;;;;;;;20.48;17.90;;;21.00;99.90;;;;;;5034480;28;20065;-71
2023/09/17 11:51:41;;;;;;;19.75;17.27;;;21.10;99.90;;;;;;5033950;28;20049;-71
2023/09/17 11:54:08;;;;;;;21.15;19.00;;;21.30;99.90;;;;;;5032780;28;20056;-71
2023/09/17 11:56:38;;;;;;;19.70;16.95;;;21.50;99.90;;;;;;5033061;28;20065;-72
2023/09/17 11:59:08;;;;;;;18.33;16.42;;;21.70;99.90;;;;;;5033858;28;20048;-71
2023/09/17 12:01:40;;;;;;;19.45;17.45;;;22.00;99.90;;;;;;5033599;28;20523;-70
2023/09/17 12:04:08;;;;;;;17.23;15.55;;;22.30;99.90;;;;;;5033930;28;20041;-71
2023/09/17 12:06:45;;;;;;;18.80;16.90;;;22.20;99.90;;;;;;5033869;28;20067;-72
2023/09/17 12:11:57;;;;;;;19.67;16.33;;;22.20;99.90;;;;;;5034223;28;20049;-71
2023/09/17 12:14:23;;;;;;;18.35;16.48;;;22.30;99.90;;;;;;5033612;28;20054;-71
2023/09/17 12:16:50;;;;;;;20.15;15.95;;;22.60;99.90;;;;;;5033915;28;20048;-71
2023/09/17 12:19:19;;;;;;;16.50;14.65;;;22.60;99.90;;;;;;5033230;28;20447;-71
2023/09/17 12:21:47;;;;;;;20.80;15.60;;;22.70;99.90;;;;;;5032455;28;20072;-71
2023/09/17 12:24:44;;;;;;;18.65;15.77;;;22.70;99.90;;;;;;5033459;28;20049;-72
2023/09/17 12:29:59;;;;;;;16.02;14.15;;;22.80;99.90;;;;;;5032745;28;20068;-71
2023/09/17 12:32:30;;;;;;;16.20;14.60;;;22.90;99.90;;;;;;5033569;28;20057;-70